Time;durP1;ratioP1;P1;durP2;ratioP2;P2;SDS_P1;SDS_P2;PMS_P1;PMS_P2;Temp;Humidity;BMP_temperature;BMP_pressure;BME280_temperature;BME280_humidity;BME280_pressure;Samples;Min_cycle;Max_cycle;Signal;HPM_P1;HPM_P2
2021/08/20 00:00:56;;;;;;;19.63;12.82;;;;;;;19.56;61.26;101453.38;4852686;28;123699;-68
2021/08/20 00:03:24;;;;;;;18.83;12.50;;;;;;;19.57;61.26;101456.91;4851206;28;115498;-68
2021/08/20 00:05:51;;;;;;;22.88;12.23;;;;;;;19.57;61.18;101460.47;4854656;28;114842;-68
2021/08/20 00:08:19;;;;;;;19.60;12.90;;;;;;;19.56;61.40;101453.38;4840364;29;125092;-68
2021/08/20 00:10:48;;;;;;;17.25;11.90;;;;;;;19.56;61.19;101457.91;4853766;28;126706;-68
2021/08/20 00:13:17;;;;;;;19.55;12.38;;;;;;;19.55;61.35;101457.03;4848398;28;114334;-68
2021/08/20 00:15:45;;;;;;;19.88;12.43;;;;;;;19.53;61.21;101453.59;4840495;29;112825;-68
2021/08/20 00:18:13;;;;;;;20.23;13.50;;;;;;;19.52;61.31;101454.56;4855063;28;124130;-68
2021/08/20 00:20:40;;;;;;;21.33;12.82;;;;;;;19.52;61.09;101462.63;4855150;28;123851;-68
2021/08/20 00:23:07;;;;;;;18.45;12.15;;;;;;;19.50;61.04;101459.19;4849029;28;114779;-68
2021/08/20 00:25:34;;;;;;;17.27;11.88;;;;;;;19.48;61.12;101449.50;4853574;28;113666;-68
2021/08/20 00:28:01;;;;;;;19.20;12.48;;;;;;;19.45;61.10;101445.25;4852352;29;124189;-68
2021/08/20 00:30:29;;;;;;;17.60;12.05;;;;;;;19.42;61.19;101445.44;4836167;28;122873;-69
2021/08/20 00:32:56;;;;;;;20.88;12.88;;;;;;;19.41;60.95;101449.13;4852320;28;114337;-69
2021/08/20 00:35:23;;;;;;;18.98;12.55;;;;;;;19.38;61.07;101449.34;4848445;28;113892;-69
2021/08/20 00:37:50;;;;;;;17.30;11.95;;;;;;;19.34;61.00;101445.16;4850318;28;124111;-69
2021/08/20 00:40:17;;;;;;;19.10;11.75;;;;;;;19.32;61.03;101449.78;4849245;28;124203;-69
2021/08/20 00:42:46;;;;;;;20.38;12.45;;;;;;;19.29;61.13;101455.38;4837777;28;114379;-69
2021/08/20 00:45:13;;;;;;;20.30;12.55;;;;;;;19.26;60.96;101451.09;4848122;28;114094;-69
2021/08/20 00:47:40;;;;;;;19.17;12.00;;;;;;;19.22;61.20;101447.75;4849220;28;124810;-69
2021/08/20 00:50:08;;;;;;;19.98;12.40;;;;;;;19.20;60.89;101447.00;4852010;28;124715;-69
2021/08/20 00:52:35;;;;;;;21.83;12.77;;;;;;;19.18;61.16;101432.84;4839821;28;114302;-69
2021/08/20 00:55:04;;;;;;;19.88;11.95;;;;;;;19.16;61.05;101437.47;4854588;28;115163;-68
2021/08/20 00:57:34;;;;;;;20.98;12.65;;;;;;;19.15;61.11;101438.44;4836586;29;123863;-68
2021/08/20 01:00:01;;;;;;;20.58;12.93;;;;;;;19.12;61.35;101427.91;4851694;28;123994;-68
2021/08/20 01:02:28;;;;;;;19.67;11.63;;;;;;;19.10;61.26;101429.88;4852992;28;114687;-68
2021/08/20 01:04:56;;;;;;;21.05;12.20;;;;;;;19.10;61.17;101435.22;4848497;28;113995;-68
2021/08/20 01:07:23;;;;;;;16.98;11.50;;;;;;;19.08;61.22;101436.28;4851418;28;123701;-68
2021/08/20 01:09:50;;;;;;;18.85;12.15;;;;;;;19.06;61.22;101434.59;4836522;29;123400;-68
2021/08/20 01:12:18;;;;;;;17.73;11.52;;;;;;;19.04;61.22;101435.66;4852857;28;114220;-68
2021/08/20 01:14:50;;;;;;;19.58;11.23;;;;;;;19.02;61.31;101434.91;4828864;28;113201;-68
2021/08/20 01:17:18;;;;;;;17.75;11.38;;;;;;;19.01;61.40;101426.00;4837896;28;123141;-68
2021/08/20 01:19:47;;;;;;;17.48;11.05;;;;;;;19.00;61.32;101423.41;4839087;29;124075;-68
2021/08/20 01:22:15;;;;;;;19.80;10.93;;;;;;;19.00;61.21;101428.78;4847525;28;115087;-68
2021/08/20 01:24:48;;;;;;;15.77;10.80;;;;;;;18.99;61.25;101419.03;4836132;29;113663;-69
2021/08/20 01:27:21;;;;;;;15.68;10.52;;;;;;;18.98;61.30;101420.00;4837536;29;127211;-69
2021/08/20 01:29:48;;;;;;;18.55;11.15;;;;;;;18.97;61.50;101423.66;4848241;29;123695;-69
2021/08/20 01:40:46;;;;;;;16.48;10.68;;;;;;;18.86;61.35;101425.25;4856071;28;124929;-69
2021/08/20 01:43:14;;;;;;;15.88;10.40;;;;;;;18.86;61.54;101422.56;4837157;29;122857;-69
2021/08/20 01:45:43;;;;;;;17.40;10.25;;;;;;;18.88;61.86;101429.69;4846056;28;115399;-69
2021/08/20 01:48:11;;;;;;;19.15;10.63;;;;;;;18.89;61.55;101431.38;4828233;29;114263;-68
2021/08/20 01:50:41;;;;;;;16.02;10.70;;;;;;;18.90;61.66;101433.09;4845405;28;123391;-68
2021/08/20 01:53:13;;;;;;;17.02;10.70;;;;;;;18.91;61.60;101432.13;4848871;28;124096;-68
2021/08/20 01:55:44;;;;;;;15.93;10.95;;;;;;;18.91;61.65;101424.06;4830398;28;114229;-68
2021/08/20 01:58:12;;;;;;;16.02;10.15;;;;;;;18.92;61.67;101425.81;4834755;29;113819;-68
2021/08/20 02:00:40;;;;;;;16.90;10.10;;;;;;;18.92;61.35;101425.81;4846439;28;124220;-68
2021/08/20 02:03:10;;;;;;;16.77;10.32;;;;;;;18.92;61.54;101425.81;4838836;29;123316;-68
2021/08/20 02:05:37;;;;;;;20.52;10.95;;;;;;;18.94;61.41;101439.97;4845926;28;114568;-68
2021/08/20 02:08:06;;;;;;;17.30;10.10;;;;;;;18.95;61.56;101436.31;4831583;29;113971;-68
2021/08/20 02:10:35;;;;;;;18.30;10.52;;;;;;;18.95;61.67;101431.81;4826680;29;123877;-68
2021/08/20 02:13:02;;;;;;;17.27;10.70;;;;;;;18.96;61.60;101438.03;4830923;29;122930;-68
2021/08/20 02:15:31;;;;;;;16.50;10.27;;;;;;;18.98;61.59;101441.47;4827933;29;113652;-68
2021/08/20 02:17:59;;;;;;;15.93;9.73;;;;;;;18.99;61.49;101437.81;4832326;29;113292;-68
2021/08/20 02:20:26;;;;;;;20.52;10.48;;;;;;;19.00;61.44;101442.22;4844457;28;124240;-68
2021/08/20 02:22:54;;;;;;;15.73;9.98;;;;;;;19.00;61.42;101439.53;4860701;23;123193;-65
2021/08/20 02:25:23;;;;;;;15.75;10.38;;;;;;;19.00;61.45;101444.91;4875265;28;113376;-65
2021/08/20 02:27:51;;;;;;;15.02;9.55;;;;;;;19.01;61.41;101446.63;4874036;28;113376;-65
2021/08/20 02:30:19;;;;;;;15.48;9.90;;;;;;;19.01;61.37;101435.88;4871522;28;123437;-65
2021/08/20 02:32:51;;;;;;;17.15;10.13;;;;;;;19.01;61.27;101441.25;4873600;28;123151;-65
2021/08/20 02:35:23;;;;;;;15.27;10.00;;;;;;;19.00;61.11;101440.38;4858906;28;114440;-64
2021/08/20 02:37:52;;;;;;;16.73;9.90;;;;;;;18.99;61.30;101433.31;4859364;28;114292;-65
2021/08/20 02:40:20;;;;;;;17.60;9.00;;;;;;;19.01;61.40;101430.53;4885188;28;123221;-65
2021/08/20 02:42:49;;;;;;;15.20;9.10;;;;;;;18.99;61.39;101430.63;4873614;28;123287;-65
2021/08/20 02:45:18;;;;;;;15.07;9.15;;;;;;;18.99;61.33;101433.31;4891366;28;114588;-65
2021/08/20 02:47:47;;;;;;;17.35;9.95;;;;;;;19.00;61.28;101428.78;4876495;28;113145;-65
2021/08/20 02:50:15;;;;;;;15.63;9.73;;;;;;;19.01;61.35;101433.19;4875361;28;123852;-65
2021/08/20 02:52:44;;;;;;;15.13;9.25;;;;;;;19.02;61.44;101432.22;4876572;28;123067;-65
2021/08/20 02:55:12;;;;;;;14.57;9.02;;;;;;;19.01;61.24;101430.53;4875477;28;113638;-65
2021/08/20 02:57:42;;;;;;;14.05;8.68;;;;;;;19.00;61.30;101434.16;4873631;28;113815;-65
2021/08/20 03:00:10;;;;;;;14.80;8.80;;;;;;;19.00;61.54;101434.16;4875859;28;123276;-65
2021/08/20 03:02:37;;;;;;;14.63;9.50;;;;;;;18.99;61.50;101443.19;4863354;28;122565;-65
2021/08/20 03:05:06;;;;;;;16.75;9.48;;;;;;;18.96;61.27;101428.16;4873211;28;113486;-64
2021/08/20 03:07:35;;;;;;;15.73;9.05;;;;;;;18.96;61.55;101432.66;4873318;28;112887;-64
2021/08/20 03:10:04;;;;;;;15.57;8.75;;;;;;;18.96;61.61;101427.28;4875592;28;123473;-65
2021/08/20 03:12:35;;;;;;;13.30;8.43;;;;;;;18.96;61.60;101432.66;4888864;28;124862;-64
2021/08/20 03:15:02;;;;;;;14.45;9.18;;;;;;;18.95;61.44;101426.44;4891071;28;114268;-64
2021/08/20 03:17:35;;;;;;;14.82;8.75;;;;;;;18.96;61.58;101432.66;4863771;28;113244;-64
2021/08/20 03:20:08;;;;;;;15.27;8.90;;;;;;;18.97;61.59;101434.41;4872788;28;123175;-64
2021/08/20 03:22:35;;;;;;;15.25;8.73;;;;;;;18.97;61.40;101435.25;4890570;28;124162;-64
2021/08/20 03:25:09;;;;;;;14.77;8.63;;;;;;;18.98;61.42;101441.47;4873496;28;114221;-64
2021/08/20 03:27:37;;;;;;;16.23;8.80;;;;;;;18.97;61.46;101440.63;4877927;28;114194;-65
2021/08/20 03:30:26;;;;;;;14.35;8.23;;;;;;;18.97;61.68;101434.41;4860521;28;123418;-64
2021/08/20 03:33:00;;;;;;;13.82;8.25;;;;;;;18.96;61.50;101428.16;4878327;28;123143;-64
2021/08/20 03:35:29;;;;;;;12.65;8.23;;;;;;;18.95;61.65;101420.19;4876754;28;113511;-65
2021/08/20 03:37:59;;;;;;;12.38;8.63;;;;;;;18.95;61.52;101420.19;4876933;28;113554;-65
2021/08/20 03:40:31;;;;;;;13.18;8.00;;;;;;;18.95;61.72;101420.19;4878198;28;123220;-65
2021/08/20 03:43:02;;;;;;;13.85;8.52;;;;;;;18.95;61.61;101428.25;4892554;28;123229;-65
2021/08/20 03:45:35;;;;;;;13.77;8.60;;;;;;;18.95;61.63;101428.25;4874118;28;113482;-64
2021/08/20 03:48:17;;;;;;;12.93;8.20;;;;;;;18.97;61.71;101434.41;4874828;28;113056;-65
2021/08/20 03:50:44;;;;;;;12.35;8.10;;;;;;;18.98;61.66;101436.09;4876771;28;123222;-65
2021/08/20 03:53:11;;;;;;;13.63;8.82;;;;;;;18.99;61.63;101437.81;4874387;28;124775;-65
2021/08/20 03:55:39;;;;;;;14.50;8.52;;;;;;;18.99;61.67;101451.25;4878363;28;113374;-64
2021/08/20 03:58:32;;;;;;;16.63;8.82;;;;;;;18.96;61.38;101436.19;4895065;28;113834;-64
2021/08/20 04:01:07;;;;;;;14.65;8.68;;;;;;;18.96;61.67;101438.03;4890146;28;123202;-65
2021/08/20 04:03:35;;;;;;;13.98;8.00;;;;;;;18.95;61.62;101437.19;4877883;28;123125;-65
2021/08/20 04:06:09;;;;;;;14.60;8.93;;;;;;;18.95;61.45;101441.66;4875640;28;113295;-65
2021/08/20 04:08:40;;;;;;;14.48;8.88;;;;;;;18.92;61.50;101436.53;4879116;28;113730;-65
2021/08/20 04:11:19;;;;;;;13.27;8.23;;;;;;;18.88;61.55;101443.09;4866542;28;123579;-65
2021/08/20 04:13:54;;;;;;;16.05;8.48;;;;;;;18.85;61.36;101436.97;4876006;28;126595;-64
2021/08/20 04:16:22;;;;;;;15.63;8.55;;;;;;;18.82;61.63;101437.19;4862231;28;115087;-65
2021/08/20 04:18:49;;;;;;;14.00;8.48;;;;;;;18.80;61.43;101433.75;4873157;28;114374;-65
2021/08/20 04:21:19;;;;;;;14.63;8.68;;;;;;;18.79;61.46;101437.34;4878164;28;123914;-65
2021/08/20 04:23:47;;;;;;;15.90;9.30;;;;;;;18.78;61.60;101435.66;4871958;28;123010;-65
2021/08/20 04:26:15;;;;;;;13.75;8.38;;;;;;;18.76;61.50;101437.59;4876794;28;113171;-64
2021/08/20 04:29:01;;;;;;;14.30;8.07;;;;;;;18.74;61.37;101439.53;4894644;28;114806;-65
2021/08/20 04:31:51;;;;;;;14.82;8.25;;;;;;;18.72;61.46;101446.78;4883313;28;124526;-64
2021/08/20 04:34:32;;;;;;;15.27;8.63;;;;;;;18.67;61.76;101448.97;4889084;28;124358;-64
2021/08/20 04:37:28;;;;;;;11.85;7.57;;;;;;;18.64;61.74;101449.16;4870502;28;114869;-64
2021/08/20 04:40:25;;;;;;;13.75;8.07;;;;;;;18.60;61.95;101451.19;4891071;28;115317;-64
2021/08/20 04:43:02;;;;;;;13.40;7.85;;;;;;;18.57;61.90;101453.22;4872993;28;127241;-64
2021/08/20 04:45:45;;;;;;;13.23;7.93;;;;;;;18.57;61.91;101453.22;4878184;28;123192;-64
2021/08/20 04:48:36;;;;;;;14.43;8.30;;;;;;;18.56;61.91;101456.91;4882232;28;114762;-64
2021/08/20 04:51:25;;;;;;;13.32;8.07;;;;;;;18.56;62.14;101456.91;4891148;28;114232;-64
2021/08/20 04:54:26;;;;;;;13.38;7.80;;;;;;;18.55;62.11;101455.16;4881577;28;124266;-65
2021/08/20 04:56:59;;;;;;;12.30;7.75;;;;;;;18.56;62.31;101462.25;4892436;28;124177;-65
2021/08/20 04:59:28;;;;;;;12.45;7.28;;;;;;;18.57;62.31;101458.59;4876311;28;113475;-65
2021/08/20 05:01:55;;;;;;;16.15;7.72;;;;;;;18.58;62.24;101460.34;4879032;28;113105;-65
2021/08/20 05:04:22;;;;;;;13.13;7.70;;;;;;;18.62;62.41;101467.19;4890163;28;124108;-65
2021/08/20 05:06:50;;;;;;;15.85;7.93;;;;;;;18.63;62.66;101463.56;4877201;28;122780;-65
2021/08/20 05:09:17;;;;;;;12.68;7.40;;;;;;;18.65;62.54;101465.16;4891061;28;115509;-65
2021/08/20 05:11:44;;;;;;;10.88;6.80;;;;;;;18.69;62.61;101468.50;4892770;28;115026;-65
2021/08/20 05:14:11;;;;;;;13.80;7.45;;;;;;;18.71;62.62;101466.56;4893743;28;124088;-65
2021/08/20 05:16:38;;;;;;;11.38;7.63;;;;;;;18.73;62.58;101475.38;4894863;28;124069;-65
2021/08/20 05:19:06;;;;;;;12.15;7.25;;;;;;;18.77;62.70;101466.13;4888749;28;115094;-65
2021/08/20 05:21:33;;;;;;;14.13;7.32;;;;;;;18.80;62.60;101474.00;4893095;28;114030;-64
2021/08/20 05:24:00;;;;;;;12.77;6.75;;;;;;;18.84;62.71;101472.81;4891154;28;124058;-64
2021/08/20 05:26:27;;;;;;;10.57;7.47;;;;;;;18.89;62.96;101468.94;4894591;28;124013;-65
2021/08/20 05:28:54;;;;;;;11.68;7.13;;;;;;;18.93;62.93;101465.09;4890753;28;114513;-64
2021/08/20 05:31:22;;;;;;;13.38;7.30;;;;;;;18.96;62.65;101471.09;4889870;28;114052;-65
2021/08/20 05:33:49;;;;;;;11.68;6.72;;;;;;;19.00;62.87;101471.75;4889673;28;124070;-64
2021/08/20 05:36:16;;;;;;;10.52;7.25;;;;;;;19.03;62.84;101471.53;4869363;28;124009;-64
2021/08/20 05:38:44;;;;;;;11.60;7.35;;;;;;;19.05;62.82;101475.81;4893515;28;114247;-64
2021/08/20 05:41:11;;;;;;;12.30;6.60;;;;;;;19.07;62.72;101473.03;4892133;28;114100;-64
2021/08/20 05:43:38;;;;;;;10.77;6.85;;;;;;;19.10;62.65;101478.19;4893366;28;124488;-64
2021/08/20 05:46:05;;;;;;;11.75;7.15;;;;;;;19.11;62.69;101485.25;4876916;28;122650;-64
2021/08/20 05:48:32;;;;;;;14.00;7.18;;;;;;;19.13;62.67;101477.09;4888318;28;114330;-64
2021/08/20 05:50:59;;;;;;;11.30;6.80;;;;;;;19.15;62.74;101486.75;4889879;28;113342;-64
2021/08/20 05:53:26;;;;;;;14.00;7.00;;;;;;;19.17;63.00;101490.19;4890573;28;123968;-64
2021/08/20 05:55:54;;;;;;;13.23;7.57;;;;;;;19.22;63.00;101493.41;4892526;28;124002;-64
2021/08/20 05:58:21;;;;;;;12.05;6.75;;;;;;;19.27;63.08;101501.16;4874371;28;114177;-65
2021/08/20 06:00:49;;;;;;;10.70;6.97;;;;;;;19.32;63.11;101495.44;4891658;28;114750;-65
2021/08/20 06:03:20;;;;;;;10.82;6.97;;;;;;;19.37;63.09;101506.72;4890692;28;124407;-64
2021/08/20 06:05:49;;;;;;;10.93;6.97;;;;;;;19.44;63.06;101508.00;4876964;28;123776;-64
2021/08/20 06:08:17;;;;;;;11.55;6.82;;;;;;;19.50;63.11;101504.03;4877482;28;113494;-65
2021/08/20 06:10:45;;;;;;;10.98;7.03;;;;;;;19.55;63.16;101505.41;4888670;28;114228;-63
2021/08/20 06:13:12;;;;;;;12.20;7.72;;;;;;;19.63;63.19;101512.91;4891182;28;124040;-63
2021/08/20 06:15:39;;;;;;;11.00;6.90;;;;;;;19.69;63.08;101507.09;4892576;28;123753;-63
2021/08/20 06:18:07;;;;;;;13.07;7.20;;;;;;;19.75;63.16;101511.19;4890549;28;114585;-63
2021/08/20 06:20:34;;;;;;;12.55;7.68;;;;;;;19.80;63.22;101515.25;4892987;28;113757;-63
2021/08/20 06:23:01;;;;;;;12.43;7.25;;;;;;;19.85;63.12;101517.59;4890520;28;124399;-64
2021/08/20 06:25:28;;;;;;;12.65;7.63;;;;;;;19.91;63.20;101511.78;4889471;28;123832;-64
2021/08/20 06:27:56;;;;;;;12.32;7.18;;;;;;;19.98;63.26;101513.03;4886417;28;114494;-63
2021/08/20 06:30:23;;;;;;;12.27;7.10;;;;;;;20.02;62.98;101514.53;4873670;28;113145;-63
2021/08/20 06:32:50;;;;;;;12.40;6.93;;;;;;;20.08;63.11;101515.91;4890275;28;123908;-63
2021/08/20 06:35:18;;;;;;;10.82;7.00;;;;;;;20.13;62.97;101515.56;4886361;28;122548;-63
2021/08/20 06:37:45;;;;;;;11.77;7.40;;;;;;;20.18;63.16;101513.38;4874705;28;114305;-63
2021/08/20 06:40:13;;;;;;;11.50;7.35;;;;;;;20.23;63.01;101516.59;4891004;28;114011;-63
2021/08/20 06:42:40;;;;;;;10.90;6.75;;;;;;;20.28;62.88;101517.09;4891030;28;124128;-63
2021/08/20 06:45:07;;;;;;;11.45;6.60;;;;;;;20.32;62.94;101510.50;4891670;28;123747;-63
2021/08/20 06:47:36;;;;;;;12.52;6.78;;;;;;;20.35;62.83;101515.66;4859636;28;114397;-63
2021/08/20 06:50:03;;;;;;;11.57;6.57;;;;;;;20.38;62.95;101515.44;4887527;28;115100;-64
2021/08/20 06:52:30;;;;;;;10.35;6.82;;;;;;;20.43;62.91;101513.22;4889883;28;123936;-63
2021/08/20 06:54:58;;;;;;;11.10;6.60;;;;;;;20.52;63.11;101510.81;4891436;28;124013;-64
2021/08/20 06:57:26;;;;;;;10.32;6.45;;;;;;;20.60;63.00;101513.81;4892192;28;114437;-64
2021/08/20 06:59:53;;;;;;;10.18;5.80;;;;;;;20.69;63.09;101515.78;4894874;28;114068;-64
2021/08/20 07:02:20;;;;;;;11.65;6.82;;;;;;;20.79;63.16;101519.50;4892500;28;124139;-64
2021/08/20 07:04:49;;;;;;;11.68;7.00;;;;;;;20.90;63.01;101525.88;4867765;28;122674;-63
2021/08/20 07:07:16;;;;;;;10.85;6.30;;;;;;;20.99;62.91;101522.47;4897665;28;114704;-64
2021/08/20 07:09:44;;;;;;;11.30;6.80;;;;;;;21.11;62.92;101524.19;4895283;28;114637;-64
2021/08/20 07:12:11;;;;;;;11.43;6.57;;;;;;;21.20;62.82;101523.47;4894359;28;124858;-64
2021/08/20 07:14:38;;;;;;;10.90;6.25;;;;;;;21.32;62.85;101526.16;4893952;28;123968;-64
2021/08/20 07:17:05;;;;;;;9.88;6.55;;;;;;;21.41;62.60;101525.41;4895136;28;114056;-64
2021/08/20 07:19:32;;;;;;;11.05;6.30;;;;;;;21.48;62.45;101532.06;4897482;28;114053;-64
2021/08/20 07:21:59;;;;;;;10.02;6.38;;;;;;;21.55;62.24;101527.06;4872095;28;124670;-64
2021/08/20 07:24:26;;;;;;;11.38;6.18;;;;;;;21.63;61.92;101534.53;4894290;28;124686;-64
2021/08/20 07:26:53;;;;;;;10.30;6.32;;;;;;;21.68;61.95;101527.78;4894702;28;114262;-64
2021/08/20 07:29:20;;;;;;;10.35;5.93;;;;;;;21.75;62.05;101525.41;4895092;28;114833;-64
2021/08/20 07:31:48;;;;;;;11.68;6.70;;;;;;;21.85;62.11;101529.09;4892570;28;124271;-64
2021/08/20 07:34:15;;;;;;;10.93;6.63;;;;;;;21.97;61.88;101538.88;4884810;28;124531;-63
2021/08/20 07:36:42;;;;;;;9.10;5.93;;;;;;;22.10;61.95;101529.75;4884063;28;115044;-64
2021/08/20 07:39:09;;;;;;;11.27;6.95;;;;;;;22.23;61.93;101533.16;4894064;28;114890;-63
2021/08/20 07:41:37;;;;;;;11.85;7.28;;;;;;;22.34;61.55;101530.44;4894153;28;124852;-64
2021/08/20 07:44:04;;;;;;;11.15;6.75;;;;;;;22.40;61.22;101528.22;4894070;28;123122;-63
2021/08/20 07:46:31;;;;;;;10.57;7.05;;;;;;;22.45;61.16;101526.84;4897458;28;114753;-64
2021/08/20 07:48:58;;;;;;;10.80;7.18;;;;;;;22.51;61.16;101530.88;4894634;28;114301;-64
2021/08/20 07:51:25;;;;;;;10.77;6.85;;;;;;;22.60;61.07;101545.41;4884104;28;124066;-64
2021/08/20 07:53:53;;;;;;;12.15;7.38;;;;;;;22.66;60.75;101544.88;4892010;28;124021;-64
2021/08/20 07:56:21;;;;;;;11.75;7.32;;;;;;;22.71;60.68;101543.50;4896936;28;114211;-64
2021/08/20 07:58:49;;;;;;;10.40;7.05;;;;;;;22.74;60.46;101543.25;4890677;28;114013;-63
2021/08/20 08:01:17;;;;;;;12.85;7.60;;;;;;;22.80;60.36;101551.81;4894281;28;124115;-64
2021/08/20 08:03:44;;;;;;;10.90;7.18;;;;;;;22.83;60.15;101551.53;4892525;28;123785;-64
2021/08/20 08:06:13;;;;;;;10.80;7.38;;;;;;;22.83;60.14;101546.13;4895842;28;114202;-64
2021/08/20 08:08:41;;;;;;;9.90;6.95;;;;;;;22.86;60.17;101552.13;4879694;28;113395;-64
2021/08/20 08:11:09;;;;;;;10.82;6.95;;;;;;;22.88;60.11;101552.00;4892220;28;124148;-63
2021/08/20 08:13:37;;;;;;;11.00;7.13;;;;;;;22.92;59.97;101556.16;4878717;28;122913;-63
2021/08/20 08:16:04;;;;;;;11.13;6.93;;;;;;;22.94;59.82;101548.78;4894613;28;114520;-64
2021/08/20 08:18:31;;;;;;;11.45;6.82;;;;;;;22.97;59.78;101553.91;4894515;28;113971;-64
2021/08/20 08:20:59;;;;;;;10.38;6.50;;;;;;;23.00;59.81;101559.06;4894129;28;124199;-64
2021/08/20 08:23:26;;;;;;;10.48;7.10;;;;;;;23.03;59.78;101556.13;4902410;23;124252;-68
2021/08/20 08:25:54;;;;;;;11.02;6.60;;;;;;;23.12;59.81;101558.03;4878226;28;115359;-68
2021/08/20 08:28:22;;;;;;;9.88;6.72;;;;;;;23.21;59.77;101555.53;4894156;28;114847;-67
2021/08/20 08:30:50;;;;;;;13.25;7.00;;;;;;;23.30;59.56;101554.69;4876859;28;124827;-68
2021/08/20 08:33:18;;;;;;;10.90;7.10;;;;;;;23.37;59.40;101555.88;4892772;28;123883;-68
2021/08/20 08:36:00;;;;;;;11.70;6.60;;;;;;;23.46;59.13;101555.06;4885854;28;114563;-68
2021/08/20 08:38:28;;;;;;;11.18;6.65;;;;;;;23.52;59.45;101549.09;4891152;28;113943;-68
2021/08/20 08:40:56;;;;;;;10.63;7.00;;;;;;;23.61;59.10;101558.25;4893819;28;124208;-68
2021/08/20 08:43:24;;;;;;;11.80;7.18;;;;;;;23.65;58.98;101556.97;4892697;28;123931;-68
2021/08/20 08:45:51;;;;;;;10.18;6.75;;;;;;;23.68;58.75;101555.88;4873029;28;114292;-68
2021/08/20 08:48:19;;;;;;;11.80;7.35;;;;;;;23.74;58.58;101563.44;4889406;28;114330;-68
2021/08/20 08:50:46;;;;;;;11.13;6.75;;;;;;;23.79;58.40;101561.19;4895620;28;123893;-68
2021/08/20 08:53:14;;;;;;;10.52;6.80;;;;;;;23.82;58.48;101566.31;4894700;28;123761;-68
2021/08/20 08:55:57;;;;;;;11.40;6.85;;;;;;;23.85;58.27;101576.03;4883893;28;114983;-69
2021/08/20 08:58:26;;;;;;;11.15;6.95;;;;;;;23.88;58.03;101565.78;4892572;28;114286;-69
2021/08/20 09:00:57;;;;;;;9.63;6.57;;;;;;;23.94;58.23;101568.91;4865644;28;124451;-69
2021/08/20 09:03:28;;;;;;;11.52;7.13;;;;;;;24.02;58.23;101566.38;4893529;28;123974;-68
2021/08/20 09:05:58;;;;;;;11.02;6.75;;;;;;;24.08;58.01;101565.81;4876499;28;114814;-69
2021/08/20 09:08:28;;;;;;;9.55;6.43;;;;;;;24.14;57.95;101565.25;4876731;28;113076;-69
2021/08/20 09:11:01;;;;;;;12.65;7.28;;;;;;;24.20;57.68;101570.09;4890588;28;124447;-69
2021/08/20 09:13:30;;;;;;;9.52;6.50;;;;;;;24.27;57.35;101571.25;4889642;28;124184;-69
2021/08/20 09:16:08;;;;;;;8.88;6.05;;;;;;;24.32;57.47;101561.84;4889951;28;115123;-69
2021/08/20 09:18:36;;;;;;;12.45;6.85;;;;;;;24.41;57.58;101555.59;4876564;28;115136;-69
2021/08/20 09:21:04;;;;;;;11.68;6.97;;;;;;;24.49;57.35;101563.88;4889808;28;124167;-69
2021/08/20 09:23:32;;;;;;;10.85;7.22;;;;;;;24.53;57.34;101559.91;4890760;28;123880;-69
2021/08/20 09:26:01;;;;;;;10.68;7.07;;;;;;;24.57;57.05;101566.75;4895151;28;114084;-69
2021/08/20 09:28:30;;;;;;;10.75;7.32;;;;;;;24.61;56.44;101568.16;4894996;28;114646;-67
2021/08/20 09:31:11;;;;;;;10.57;7.18;;;;;;;24.63;56.64;101566.16;4890870;28;124022;-68
2021/08/20 09:33:41;;;;;;;12.13;7.60;;;;;;;24.66;56.62;101565.88;4880032;28;124770;-68
2021/08/20 09:36:09;;;;;;;11.82;7.90;;;;;;;24.71;56.47;101573.56;4892945;28;113924;-68
2021/08/20 09:38:39;;;;;;;11.05;7.65;;;;;;;24.77;56.52;101572.13;4893300;28;114467;-68
2021/08/20 09:41:12;;;;;;;11.85;8.10;;;;;;;24.84;56.60;101573.28;4883845;28;124673;-68
2021/08/20 09:43:41;;;;;;;13.65;9.00;;;;;;;24.93;56.29;101583.25;4889533;28;125201;-68
2021/08/20 09:46:13;;;;;;;12.38;8.23;;;;;;;25.05;56.09;101571.25;4890380;28;114127;-68
2021/08/20 09:48:55;;;;;;;13.18;8.18;;;;;;;25.15;55.91;101570.38;4889375;28;114668;-68
2021/08/20 09:51:42;;;;;;;11.77;8.00;;;;;;;25.23;55.80;101568.66;4878378;23;124911;-71
2021/08/20 09:54:24;;;;;;;12.18;8.25;;;;;;;25.31;55.63;101570.63;4853202;28;124604;-71
2021/08/20 09:57:00;;;;;;;11.80;7.88;;;;;;;25.38;55.59;101566.31;4824174;29;114015;-72
2021/08/20 09:59:30;;;;;;;13.88;7.68;;;;;;;25.47;55.24;101563.72;4828060;29;114484;-71
2021/08/20 10:02:00;;;;;;;11.20;7.68;;;;;;;25.52;55.29;101572.25;4835640;29;123924;-71
2021/08/20 10:04:31;;;;;;;11.65;7.38;;;;;;;25.56;54.69;101584.50;4819450;29;123632;-72
2021/08/20 10:06:59;;;;;;;10.75;7.53;;;;;;;25.54;54.42;101583.81;4821382;29;115872;-71
2021/08/20 10:09:29;;;;;;;11.00;7.43;;;;;;;25.53;54.19;101573.97;4829555;29;114563;-71
2021/08/20 10:11:58;;;;;;;11.25;7.53;;;;;;;25.49;54.20;101583.44;4827669;29;124990;-72
2021/08/20 10:14:28;;;;;;;10.43;7.03;;;;;;;25.46;53.75;101584.56;4829927;29;124695;-71
2021/08/20 10:16:55;;;;;;;11.07;7.28;;;;;;;25.42;53.92;101578.56;4824976;29;114272;-72
2021/08/20 10:19:23;;;;;;;10.73;7.63;;;;;;;25.39;54.10;101584.31;4829280;29;113856;-71
2021/08/20 10:21:51;;;;;;;14.32;8.68;;;;;;;25.37;54.29;101583.63;4824356;29;124377;-71
2021/08/20 10:24:18;;;;;;;12.30;8.40;;;;;;;25.35;54.21;101577.44;4826175;29;123879;-71
2021/08/20 10:26:54;;;;;;;13.20;8.52;;;;;;;25.36;54.04;101573.75;4823594;29;113390;-71
2021/08/20 10:29:27;;;;;;;12.05;8.38;;;;;;;25.40;54.26;101572.44;4812087;29;112916;-71
2021/08/20 10:32:01;;;;;;;13.68;9.10;;;;;;;25.45;53.76;101581.00;4826382;29;124859;-72
2021/08/20 10:34:31;;;;;;;13.35;9.18;;;;;;;25.48;53.98;101576.28;4806280;29;123017;-71
2021/08/20 10:37:16;;;;;;;14.32;9.68;;;;;;;25.54;54.01;101575.69;4831326;29;114116;-71
2021/08/20 10:39:46;;;;;;;14.82;8.82;;;;;;;25.59;53.86;101579.66;4828819;29;113802;-72
2021/08/20 10:42:38;;;;;;;12.60;8.77;;;;;;;25.62;53.54;101578.50;4822929;29;124068;-72
2021/08/20 10:45:07;;;;;;;13.82;9.00;;;;;;;25.61;53.18;101582.22;4815004;29;122927;-72
2021/08/20 10:47:35;;;;;;;12.63;8.68;;;;;;;25.61;53.21;101584.94;4824852;29;114452;-71
2021/08/20 10:50:10;;;;;;;14.30;9.73;;;;;;;25.64;53.47;101581.94;4823422;29;114136;-71
2021/08/20 10:52:42;;;;;;;13.93;8.75;;;;;;;25.73;53.66;101583.75;4823693;29;124032;-71
2021/08/20 10:55:24;;;;;;;14.07;9.55;;;;;;;25.80;53.23;101582.13;4828361;29;124274;-71
2021/08/20 10:57:57;;;;;;;13.93;9.90;;;;;;;25.90;52.92;101586.63;4825389;29;115310;-71
2021/08/20 11:00:27;;;;;;;14.88;10.10;;;;;;;25.89;52.59;101595.81;4826388;29;114984;-71
2021/08/20 11:02:56;;;;;;;12.05;8.68;;;;;;;25.87;52.67;101586.97;4826000;29;124087;-71
2021/08/20 11:05:47;;;;;;;11.63;8.45;;;;;;;25.80;52.51;101587.53;4831804;29;124398;-71
2021/08/20 11:08:26;;;;;;;10.27;7.88;;;;;;;25.73;52.36;101591.88;4834290;29;114182;-70
2021/08/20 11:10:58;;;;;;;10.75;7.90;;;;;;;25.66;52.29;101590.78;4830754;29;114033;-70
2021/08/20 11:13:26;;;;;;;12.15;8.07;;;;;;;25.59;52.29;101585.06;4826168;29;124471;-71
2021/08/20 11:15:54;;;;;;;10.02;7.43;;;;;;;25.54;52.47;101587.41;4831028;29;124673;-71
2021/08/20 11:18:49;;;;;;;10.80;8.07;;;;;;;25.52;52.36;101588.53;4830410;29;114386;-71
2021/08/20 11:21:45;;;;;;;9.52;7.05;;;;;;;25.49;52.51;101588.84;4839615;29;114314;-71
2021/08/20 11:24:18;;;;;;;11.05;7.47;;;;;;;25.49;52.52;101588.84;4832150;29;124022;-71
2021/08/20 11:26:45;;;;;;;10.50;7.28;;;;;;;25.53;52.68;101595.69;4840847;29;124100;-71
2021/08/20 11:29:14;;;;;;;10.52;7.35;;;;;;;25.55;52.69;101599.09;4830729;29;114073;-71